ESSBESNN

Guest
Details From ESSB - BROMMA
To ESNN - Sundsvall Harnosand/Midlanda
Flight Number -
Tags generated
Created
Modified
Stats Distance 192 nm / 355 km
Max Altitude 23,500 ft / 7,163 m
Waypoints 5
Social Downloads 0
Likes 0
Share VATSIM

Download

Looking for another format? Having issues loading an existing format? Contact us
Advertisement - Login to hide

Notes

Basic altitude profile: - Ascent Rate: 2500ft/min - Ascent Speed: 250kts - Cruise Altitude: 35000ft - Cruise Speed: 420kts - Descent Rate: 1500ft/min - Descent Speed: 250kts Options: - Use NATs: yes - Use PACOTS: yes - Use low airways: yes - Use high airways: yes

Route

ESSB DEGAL T314 SUN ESNN

ID Type Via Altitude Latitude Longitude Leg Dist Tot Dist Heading (true) Name
O ESSB APT - 0 ft / 0 m 59.35439˚ 17.94160˚ - 0 nm - BROMMA
DEGAL FIX - 23,500 ft / 7,163 m 60.63883˚ 17.95667˚ 77 nm 77 nm 0° / 0° -
OKLEV FIX T314 (AWY-LO) 9,500 ft / 2,896 m 61.97156˚ 17.60500˚ 80 nm 157 nm 353° / 353° -
SUN VOR T314 (AWY-LO) 9,500 ft / 2,896 m 62.52844˚ 17.44872˚ 33 nm 191 nm 353° / 352° SUNDSVALL VOR-DME
O ESNN APT - 0 ft / 0 m 62.52774˚ 17.44422˚ 0 nm 191 nm 251° / 251° Sundsvall Harnosand/Midlanda

Altitude Profile

Advertisement - Login to hide

Weather


0- 5 10 15 20 25 30 35+ Temperature / ° C

Clouds and Precipitation
Forecast for 2017-12-17 12:00 UTC. Updated an hour ago

Ground ~20,000 ft ~40,000 ft Winds

ESSB

Details ICAO ESSB (BMA)
Name BROMMA
Region Sweden
Timezone Europe/Stockholm (UTC+1.0)
Stats Elevation 47 ft / 14 m (AMSL)
Location 59.354389° 17.941604°
Runways 1
Magnetic Variation 6.051° E

METAR

ESSB 171150Z 24005KT CAVOK M02/M05 Q1013 R30/15//82

Decode

TAF

Not found

Departure Runways

ID Width Length Bearing (true) Bearing (mag) Surface Threshold Offset Overrun Length
12 148 ft / 45 m 6,201 ft / 1,890 m 125.06° 119.01° Asphalt 381 ft / 116 m 0 ft / 0 m
30 148 ft / 45 m 6,201 ft / 1,890 m 305.09° 299.04° Asphalt 361 ft / 110 m 0 ft / 0 m

ESNN

Details ICAO ESNN (SDL)
Name Sundsvall Harnosand/Midlanda
Region Sweden
Timezone Unknown (UTC+0.0)
Stats Elevation 16 ft / 5 m (AMSL)
Location 62.527744° 17.444222°
Runways 1
Magnetic Variation 6.409° E

METAR

ESNN 171150Z 34003KT CAVOK M11/M12 Q1009 R16/79//67

Decode

TAF

Not found

Destination Runways

ID Width Length Bearing (true) Bearing (mag) Surface Threshold Offset Overrun Length
16 148 ft / 45 m 6,841 ft / 2,085 m 160.19° 153.78° Asphalt 492 ft / 150 m 0 ft / 0 m
34 148 ft / 45 m 6,841 ft / 2,085 m 340.20° 333.79° Asphalt 459 ft / 140 m 0 ft / 0 m

Approach Navaids

Runway Type Ident Frequency Range Bearing (true) Bearing (mag) Slope Elevation
16 Localiser NNN 108.70 MHz 18 nm / 33 km 160.19° 153.78° - 16 ft / 5 m (AMSL)
16 Glidescope NNN 108.70 MHz 10 nm / 19 km 160.19° 153.78° 3.25° 16 ft / 5 m (AMSL)
34 Localiser SNN 110.30 MHz 18 nm / 33 km 340.17° 333.76° - 16 ft / 5 m (AMSL)
34 Glidescope SNN 110.30 MHz 10 nm / 19 km 340.19° 333.78° 3.00° 16 ft / 5 m (AMSL)

Popular Alternatives